Time;durP1;ratioP1;P1;durP2;ratioP2;P2;SDS_P1;SDS_P2;PMS_P1;PMS_P2;Temp;Humidity;BMP_temperature;BMP_pressure;BME280_temperature;BME280_humidity;BME280_pressure;Samples;Min_cycle;Max_cycle;Signal;HPM_P1;HPM_P2
2022/01/06 00:02:29;;;;;;;16.37;7.40;;;;;;;1.87;76.89;97587.49;2209547;81;21019;-82
2022/01/06 00:05:29;;;;;;;14.40;7.07;;;;;;;1.88;76.91;97585.37;2190958;80;21111;-83
2022/01/06 00:08:31;;;;;;;9.53;5.93;;;;;;;1.88;76.01;97581.09;2186907;80;21036;-83
2022/01/06 00:11:31;;;;;;;12.70;5.43;;;;;;;1.87;76.46;97574.20;2166303;80;21090;-80
2022/01/06 00:14:51;;;;;;;12.77;6.60;;;;;;;1.81;75.76;97562.89;2178049;80;21022;-81
2022/01/06 00:17:45;;;;;;;11.03;5.80;;;;;;;1.75;76.32;97562.31;2127940;82;21486;-83
2022/01/06 00:23:58;;;;;;;11.20;5.23;;;;;;;1.68;75.58;97583.95;2210614;80;21431;-82
2022/01/06 00:26:59;;;;;;;15.40;5.67;;;;;;;1.65;76.53;97579.59;2198296;80;20974;-83
2022/01/06 00:29:59;;;;;;;15.93;6.33;;;;;;;1.66;76.26;97578.77;2194470;80;21011;-83
2022/01/06 00:32:59;;;;;;;8.80;4.73;;;;;;;1.64;76.20;97585.98;2193022;81;21059;-83
2022/01/06 00:36:00;;;;;;;10.10;5.30;;;;;;;1.65;76.02;97584.74;2191890;80;21040;-81
2022/01/06 00:39:00;;;;;;;9.20;5.00;;;;;;;1.69;76.48;97592.13;2204644;80;20995;-82
2022/01/06 00:42:01;;;;;;;11.20;5.57;;;;;;;1.67;76.00;97593.79;2136976;82;21348;-82
2022/01/06 00:45:01;;;;;;;11.27;4.80;;;;;;;1.62;76.37;97585.95;2103368;83;21536;-81
2022/01/06 00:48:02;;;;;;;11.33;5.53;;;;;;;1.60;76.28;97596.61;2195887;80;20995;-83
2022/01/06 00:51:02;;;;;;;13.70;5.13;;;;;;;1.58;76.74;97591.84;2199423;80;20993;-81
2022/01/06 00:54:03;;;;;;;10.90;5.23;;;;;;;1.52;76.57;97596.82;2208002;80;21028;-82
2022/01/06 00:57:04;;;;;;;8.63;4.37;;;;;;;1.53;77.09;97608.85;2191255;80;21020;-81
2022/01/06 01:00:04;;;;;;;9.97;4.53;;;;;;;1.54;76.89;97610.17;2190550;80;21094;-81
2022/01/06 01:03:05;;;;;;;10.50;4.73;;;;;;;1.56;76.64;97597.36;2166059;80;20960;-81
2022/01/06 01:06:05;;;;;;;10.00;4.53;;;;;;;1.61;77.16;97595.78;2166641;80;21007;-81
2022/01/06 01:09:06;;;;;;;10.27;4.53;;;;;;;1.67;76.85;97601.09;2176967;80;20975;-82
2022/01/06 01:12:06;;;;;;;9.63;5.03;;;;;;;1.71;76.97;97601.63;2194490;80;21011;-82
2022/01/06 01:15:09;;;;;;;9.97;5.00;;;;;;;1.74;76.97;97604.73;2189448;80;20956;-82
2022/01/06 01:18:10;;;;;;;8.90;4.53;;;;;;;1.74;76.03;97599.17;2208010;80;21475;-82
2022/01/06 01:21:11;;;;;;;9.67;4.40;;;;;;;1.72;75.72;97609.80;2171243;80;21039;-83
2022/01/06 01:24:11;;;;;;;11.27;4.43;;;;;;;1.75;76.22;97607.34;2166824;80;21019;-82
2022/01/06 01:27:13;;;;;;;9.73;4.60;;;;;;;1.79;75.78;97613.44;2210142;80;21022;-82
2022/01/06 01:30:14;;;;;;;10.27;4.47;;;;;;;1.85;76.23;97614.47;2173417;80;21003;-83
2022/01/06 01:33:22;;;;;;;8.57;4.87;;;;;;;1.88;75.35;97623.55;2205508;80;20984;-81
2022/01/06 01:36:22;;;;;;;6.87;3.77;;;;;;;1.88;75.57;97611.98;2203618;80;21056;-82
2022/01/06 01:39:23;;;;;;;8.17;4.80;;;;;;;2.30;84.38;97620.32;2203819;80;21004;-82
2022/01/06 01:42:23;;;;;;;10.53;4.47;;;;;;;3.67;81.32;97619.53;2203882;80;20929;-81
2022/01/06 01:45:28;;;;;;;8.80;4.60;;;;;;;4.55;78.66;97603.87;2204422;80;21011;-80
2022/01/06 01:48:33;;;;;;;11.20;4.77;;;;;;;5.22;77.17;97608.73;2145126;82;21459;-81
2022/01/06 01:51:28;;;;;;;8.47;4.70;;;;;;;5.68;74.77;97591.62;2191889;80;20979;-82
2022/01/06 01:54:29;;;;;;;11.63;5.53;;;;;;;6.09;72.86;97599.44;2186159;80;21031;-82
2022/01/06 01:57:29;;;;;;;10.27;5.30;;;;;;;5.27;69.30;97603.20;2209367;80;20996;-83
2022/01/06 02:00:30;;;;;;;10.23;5.43;;;;;;;4.40;68.37;97592.45;2202457;80;20992;-82
2022/01/06 02:03:30;;;;;;;12.13;6.03;;;;;;;3.72;69.54;97595.09;2169031;80;21015;-83
2022/01/06 02:06:31;;;;;;;12.17;5.60;;;;;;;3.24;70.15;97595.84;2182900;80;21071;-83
2022/01/06 02:09:31;;;;;;;12.53;5.80;;;;;;;2.87;71.50;97599.35;2172820;80;21371;-83
2022/01/06 02:12:35;;;;;;;10.47;5.57;;;;;;;2.60;72.28;97606.05;2166533;80;21029;-83
2022/01/06 02:15:34;;;;;;;12.73;5.83;;;;;;;2.39;72.84;97596.50;2139995;82;21108;-84
2022/01/06 02:18:35;;;;;;;11.03;5.53;;;;;;;2.24;73.28;97595.71;2188760;80;21444;-84
2022/01/06 02:21:35;;;;;;;12.40;5.33;;;;;;;2.10;73.74;97608.66;2200605;80;21007;-83
2022/01/06 02:24:36;;;;;;;10.77;5.40;;;;;;;2.01;74.20;97608.02;2205222;80;21032;-82
2022/01/06 02:27:36;;;;;;;11.03;5.60;;;;;;;1.93;74.40;97612.52;2198717;80;21391;-83
2022/01/06 02:30:37;;;;;;;10.23;5.50;;;;;;;1.85;74.66;97614.89;2174571;80;21019;-82
2022/01/06 02:33:37;;;;;;;13.70;5.73;;;;;;;1.81;74.88;97619.08;2209582;80;21008;-82
2022/01/06 02:36:38;;;;;;;12.53;4.97;;;;;;;1.77;74.95;97618.55;2173177;80;21015;-82
2022/01/06 02:39:38;;;;;;;11.07;5.30;;;;;;;1.76;75.30;97628.80;2177581;80;21094;-83
2022/01/06 02:42:39;;;;;;;8.97;4.73;;;;;;;1.75;75.26;97629.21;2203243;80;21012;-83
2022/01/06 02:45:39;;;;;;;12.07;5.17;;;;;;;1.76;75.37;97630.08;2192436;80;20949;-83
2022/01/06 02:48:40;;;;;;;12.90;5.17;;;;;;;1.76;75.30;97630.95;2210366;81;20960;-82
2022/01/06 02:51:40;;;;;;;10.90;4.77;;;;;;;1.79;75.39;97643.90;2176123;80;20948;-82
2022/01/06 02:54:41;;;;;;;7.70;4.37;;;;;;;1.86;75.45;97639.78;2173901;80;20973;-83
2022/01/06 02:57:41;;;;;;;8.90;4.70;;;;;;;1.89;75.01;97642.02;2186976;80;21007;-83
2022/01/06 03:00:42;;;;;;;10.27;4.40;;;;;;;1.95;75.17;97654.59;2184848;80;21091;-82
2022/01/06 03:03:43;;;;;;;9.70;4.17;;;;;;;1.96;74.98;97646.92;2191572;80;20957;-82
2022/01/06 03:06:43;;;;;;;13.53;5.13;;;;;;;1.98;74.61;97645.25;2193257;80;21059;-82
2022/01/06 03:09:50;;;;;;;9.17;4.40;;;;;;;1.99;74.87;97646.13;2210295;80;20976;-82
2022/01/06 03:12:46;;;;;;;10.27;4.60;;;;;;;2.03;74.89;97651.39;2183932;80;20988;-83
2022/01/06 03:15:47;;;;;;;7.27;3.90;;;;;;;2.03;75.04;97655.25;2182896;80;21396;-82
2022/01/06 03:18:47;;;;;;;11.47;4.43;;;;;;;2.05;75.17;97657.45;2180965;80;21000;-82
2022/01/06 03:21:47;;;;;;;7.20;4.07;;;;;;;2.08;75.09;97659.23;2177214;80;21392;-82
2022/01/06 03:24:48;;;;;;;8.67;4.47;;;;;;;2.12;75.25;97649.05;2178505;80;21006;-82
2022/01/06 03:27:48;;;;;;;8.07;4.30;;;;;;;2.15;74.99;97655.57;2206147;80;20984;-82
2022/01/06 03:30:49;;;;;;;7.97;3.67;;;;;;;2.11;75.01;97655.45;2172032;80;20977;-82
2022/01/06 03:33:49;;;;;;;8.43;4.07;;;;;;;2.10;74.70;97655.87;2186868;80;21011;-83
2022/01/06 03:36:50;;;;;;;5.67;4.07;;;;;;;2.09;74.89;97663.13;2191895;80;21023;-82
2022/01/06 03:39:50;;;;;;;10.07;3.83;;;;;;;2.10;75.10;97661.43;2209649;81;21000;-81
2022/01/06 03:42:51;;;;;;;8.33;3.40;;;;;;;2.11;74.91;97671.77;2203972;80;21027;-84
2022/01/06 03:45:51;;;;;;;7.17;3.80;;;;;;;2.11;74.83;97676.92;2177352;80;21423;-81
2022/01/06 03:48:52;;;;;;;8.17;3.87;;;;;;;2.12;75.20;97675.21;2201240;80;21372;-81
2022/01/06 03:51:52;;;;;;;12.00;4.23;;;;;;;2.16;75.19;97680.89;2199971;80;21040;-81
2022/01/06 03:54:53;;;;;;;10.00;4.30;;;;;;;2.16;74.94;97680.89;2205962;81;20988;-81
2022/01/06 03:57:53;;;;;;;8.17;3.70;;;;;;;2.20;75.32;97678.44;2189700;80;20991;-81
2022/01/06 04:00:53;;;;;;;9.33;3.70;;;;;;;2.22;74.96;97679.77;2176745;80;21031;-81
2022/01/06 04:03:54;;;;;;;9.23;3.77;;;;;;;2.20;75.09;97676.28;2192631;80;21055;-81
2022/01/06 04:06:54;;;;;;;10.73;3.80;;;;;;;2.21;75.07;97685.34;2210047;81;21004;-83
2022/01/06 04:09:55;;;;;;;8.40;3.30;;;;;;;2.20;75.22;97682.72;2198846;80;21450;-82
2022/01/06 04:12:55;;;;;;;6.83;3.23;;;;;;;2.20;75.22;97686.16;2206160;80;20999;-82
2022/01/06 04:15:57;;;;;;;8.77;3.90;;;;;;;2.20;75.37;97676.28;2165653;80;21098;-80
2022/01/06 04:18:58;;;;;;;8.50;3.33;;;;;;;2.22;75.40;97682.34;2177758;80;21088;-81
2022/01/06 04:21:58;;;;;;;8.67;3.90;;;;;;;2.23;75.57;97675.95;2207503;80;21060;-82
2022/01/06 04:24:58;;;;;;;6.90;3.07;;;;;;;2.24;75.59;97683.25;2209349;80;20980;-83
2022/01/06 04:27:59;;;;;;;6.03;3.30;;;;;;;2.23;75.65;97680.22;2192475;80;20952;-82
2022/01/06 04:30:59;;;;;;;6.10;3.40;;;;;;;2.24;75.63;97683.25;2166135;80;21012;-84
2022/01/06 04:34:00;;;;;;;10.87;3.70;;;;;;;2.23;75.19;97682.80;2177526;80;20979;-82
2022/01/06 04:37:01;;;;;;;12.40;3.80;;;;;;;2.21;75.50;97682.76;2181169;80;21070;-81
2022/01/06 04:40:02;;;;;;;11.67;4.23;;;;;;;2.20;75.43;97664.70;2209936;80;21446;-82
2022/01/06 04:43:02;;;;;;;9.73;4.10;;;;;;;2.14;75.54;97660.67;2204050;80;21019;-82
2022/01/06 04:46:03;;;;;;;6.40;3.07;;;;;;;2.09;75.58;97666.13;2205047;80;21091;-81
2022/01/06 04:49:04;;;;;;;10.30;3.60;;;;;;;2.05;75.80;97663.89;2210160;80;20960;-82
2022/01/06 04:52:04;;;;;;;12.97;3.60;;;;;;;1.97;75.88;97665.80;2181140;80;21008;-81
2022/01/06 04:55:05;;;;;;;10.90;5.50;;;;;;;1.91;76.21;97681.95;2211037;80;20988;-82
2022/01/06 04:58:05;;;;;;;10.83;4.73;;;;;;;1.88;76.25;97679.30;2202531;80;21067;-81
2022/01/06 05:01:06;;;;;;;10.70;3.87;;;;;;;1.86;76.18;97681.83;2179671;80;21020;-83
2022/01/06 05:04:06;;;;;;;16.77;8.57;;;;;;;1.86;76.54;97686.10;2166227;80;20995;-82
2022/01/06 05:07:07;;;;;;;16.37;8.50;;;;;;;1.91;76.50;97693.53;2184577;80;20984;-83
2022/01/06 05:10:07;;;;;;;14.80;6.07;;;;;;;2.04;83.64;97687.88;2175918;80;20994;-82
2022/01/06 05:13:08;;;;;;;19.23;8.03;;;;;;;4.90;86.69;97686.71;2178423;80;21179;-81
2022/01/06 05:16:09;;;;;;;19.67;9.07;;;;;;;6.72;72.68;97680.78;2198360;80;21047;-81
2022/01/06 05:19:09;;;;;;;27.07;11.43;;;;;;;5.48;70.00;97690.59;2167151;80;21376;-82
2022/01/06 05:22:10;;;;;;;24.70;11.23;;;;;;;4.45;68.91;97696.74;2166070;80;20987;-81
2022/01/06 05:25:10;;;;;;;20.50;9.20;;;;;;;3.78;70.32;97700.61;2165690;80;21023;-81
2022/01/06 05:28:11;;;;;;;13.47;7.33;;;;;;;3.30;71.79;97706.00;2187222;80;20980;-81
2022/01/06 05:31:11;;;;;;;13.47;6.43;;;;;;;3.03;72.68;97705.84;2204851;80;20999;-81
2022/01/06 05:34:12;;;;;;;14.47;5.33;;;;;;;2.84;73.60;97716.13;2210342;80;20993;-81
2022/01/06 05:37:12;;;;;;;12.63;5.20;;;;;;;2.80;74.15;97716.89;2209509;80;21043;-80
2022/01/06 05:40:13;;;;;;;17.10;4.63;;;;;;;2.74;74.26;97719.73;2204064;80;21008;-81
2022/01/06 05:43:13;;;;;;;13.23;5.10;;;;;;;2.67;74.69;97725.16;2191831;80;21007;-80
2022/01/06 05:46:14;;;;;;;13.00;4.70;;;;;;;2.65;75.00;97724.67;2198008;80;21016;-80
2022/01/06 05:49:14;;;;;;;12.87;4.67;;;;;;;2.64;74.98;97731.52;2180254;80;21003;-81
2022/01/06 05:52:15;;;;;;;12.37;5.00;;;;;;;2.61;75.47;97738.30;2166129;80;21298;-80
2022/01/06 05:55:15;;;;;;;14.10;3.73;;;;;;;2.58;75.48;97739.48;2188792;80;21004;-81
2022/01/06 05:58:15;;;;;;;17.23;6.10;;;;;;;2.51;75.49;97740.62;2190853;80;21064;-82
2022/01/06 06:01:16;;;;;;;10.63;4.17;;;;;;;2.48;75.95;97743.11;2183661;80;21031;-80
2022/01/06 06:04:16;;;;;;;12.67;5.00;;;;;;;2.48;76.14;97743.11;2205348;80;20929;-80
2022/01/06 06:07:19;;;;;;;12.60;5.40;;;;;;;2.48;76.00;97744.41;2185913;80;20964;-80
2022/01/06 06:10:19;;;;;;;14.87;6.57;;;;;;;2.50;76.29;97744.02;2141478;82;21060;-81
2022/01/06 06:13:20;;;;;;;22.10;6.60;;;;;;;2.48;76.37;97745.69;2189932;80;20984;-80
2022/01/06 06:16:20;;;;;;;9.20;6.13;;;;;;;2.48;76.55;97750.84;2168897;80;21031;-80
2022/01/06 06:19:21;;;;;;;17.03;4.50;;;;;;;2.47;76.56;97761.11;2180410;80;21055;-80
2022/01/06 06:22:24;;;;;;;9.13;3.90;;;;;;;2.47;76.62;97769.70;2180481;80;21027;-80
2022/01/06 06:25:24;;;;;;;9.40;3.53;;;;;;;2.46;76.75;97773.53;2186986;80;21008;-80
2022/01/06 06:28:25;;;;;;;8.53;2.90;;;;;;;2.46;76.77;97771.83;2196732;80;20975;-80
2022/01/06 06:31:25;;;;;;;5.73;2.90;;;;;;;2.48;76.76;97779.17;2174982;80;20995;-80
2022/01/06 06:34:26;;;;;;;6.17;2.83;;;;;;;2.50;76.70;97777.52;2184821;80;20980;-80
2022/01/06 06:37:26;;;;;;;6.83;3.00;;;;;;;2.48;76.92;97786.03;2208762;80;21350;-80
2022/01/06 06:40:27;;;;;;;9.37;3.60;;;;;;;2.45;76.99;97788.52;2200268;80;20980;-81
2022/01/06 06:43:28;;;;;;;10.13;3.40;;;;;;;2.38;77.01;97796.50;2202120;80;21012;-80
2022/01/06 06:46:28;;;;;;;7.00;2.63;;;;;;;2.37;77.26;97796.46;2202955;80;21047;-80
2022/01/06 06:49:29;;;;;;;7.43;3.30;;;;;;;2.35;77.26;97804.14;2190411;80;21059;-80
2022/01/06 06:52:30;;;;;;;8.00;3.33;;;;;;;2.35;77.29;97814.86;2201284;80;21022;-80
2022/01/06 06:55:30;;;;;;;7.37;3.33;;;;;;;2.34;77.16;97816.56;2198851;80;21038;-81
2022/01/06 06:58:30;;;;;;;7.50;3.13;;;;;;;2.36;77.35;97821.34;2184459;80;21028;-80
2022/01/06 07:01:31;;;;;;;7.17;3.17;;;;;;;2.42;77.39;97816.36;2203425;80;21023;-80
2022/01/06 07:04:32;;;;;;;7.80;3.50;;;;;;;2.42;77.13;97821.92;2172497;80;20953;-81
2022/01/06 07:07:32;;;;;;;7.87;3.93;;;;;;;2.47;77.17;97825.50;2190412;80;21368;-80
2022/01/06 07:10:33;;;;;;;6.87;3.67;;;;;;;2.46;76.88;97827.62;2196534;80;21313;-80
2022/01/06 07:13:33;;;;;;;14.73;4.30;;;;;;;2.41;77.11;97834.34;2208692;81;21432;-80
2022/01/06 07:16:34;;;;;;;8.90;4.30;;;;;;;2.40;77.21;97833.89;2183275;80;21368;-80
2022/01/06 07:19:34;;;;;;;11.67;4.77;;;;;;;2.40;77.37;97837.34;2153028;82;21444;-81
2022/01/06 07:22:35;;;;;;;159.43;88.50;;;;;;;2.45;77.41;97837.47;2113745;83;20980;-82
2022/01/06 07:25:36;;;;;;;26.57;13.93;;;;;;;4.27;88.12;97847.50;2149433;80;21288;-80
2022/01/06 07:28:36;;;;;;;14.83;7.30;;;;;;;5.16;75.34;97841.45;2189308;80;21026;-80
2022/01/06 07:31:37;;;;;;;12.03;5.17;;;;;;;4.44;72.29;97844.00;2187502;80;20975;-80
2022/01/06 07:34:37;;;;;;;11.77;5.60;;;;;;;3.88;73.17;97850.11;2198332;80;20956;-80
2022/01/06 07:37:38;;;;;;;18.73;6.90;;;;;;;3.54;74.25;97858.80;2171613;80;21004;-78
2022/01/06 07:40:38;;;;;;;13.00;6.23;;;;;;;3.36;74.70;97860.91;2200753;80;21037;-80
2022/01/06 07:43:39;;;;;;;14.40;7.17;;;;;;;3.17;74.71;97855.30;2194845;80;21027;-81
2022/01/06 07:46:42;;;;;;;10.73;4.90;;;;;;;3.06;75.27;97863.17;2189485;80;21446;-80
2022/01/06 07:49:42;;;;;;;12.67;5.13;;;;;;;2.99;75.71;97862.98;2132408;82;21088;-79
2022/01/06 07:52:42;;;;;;;9.93;4.90;;;;;;;2.91;76.17;97867.06;2107696;83;21055;-79
2022/01/06 07:55:43;;;;;;;13.10;5.50;;;;;;;2.79;76.71;97863.34;2187307;80;21013;-80
2022/01/06 07:58:43;;;;;;;16.93;6.67;;;;;;;2.72;77.42;97863.13;2209837;80;21003;-80
2022/01/06 08:01:44;;;;;;;8.33;4.43;;;;;;;2.63;78.00;97868.91;2172100;80;20996;-79
2022/01/06 08:04:44;;;;;;;9.07;5.00;;;;;;;2.52;78.48;97866.01;2185229;80;21015;-79
2022/01/06 08:07:45;;;;;;;9.73;5.90;;;;;;;2.42;78.72;97870.86;2158547;82;21039;-79
2022/01/06 08:10:46;;;;;;;9.47;5.60;;;;;;;2.36;79.56;97868.98;2113169;83;21003;-80
2022/01/06 08:13:46;;;;;;;10.87;6.73;;;;;;;2.32;79.57;97872.30;2104368;83;21016;-80
2022/01/06 08:16:47;;;;;;;7.17;4.17;;;;;;;2.24;79.84;97873.79;2104193;83;21059;-81
2022/01/06 08:19:47;;;;;;;8.63;4.23;;;;;;;2.22;80.03;97876.32;2173425;80;21031;-81
2022/01/06 08:22:48;;;;;;;7.87;4.17;;;;;;;2.20;80.08;97875.41;2178170;80;20956;-81
2022/01/06 08:25:48;;;;;;;9.87;5.07;;;;;;;2.19;80.52;97878.81;2174259;80;21031;-81
2022/01/06 08:28:49;;;;;;;7.17;5.13;;;;;;;2.18;80.56;97878.34;2198853;80;21059;-81
2022/01/06 08:31:49;;;;;;;8.63;4.70;;;;;;;2.19;80.77;97883.95;2209973;81;21040;-81
2022/01/06 08:34:49;;;;;;;8.13;4.33;;;;;;;2.23;80.86;97887.49;2197830;80;21008;-81
2022/01/06 08:37:50;;;;;;;8.13;4.00;;;;;;;2.23;81.28;97889.66;2167298;80;21255;-80
2022/01/06 08:40:51;;;;;;;10.03;5.10;;;;;;;2.22;81.37;97891.77;2202387;80;21336;-80
2022/01/06 08:43:51;;;;;;;9.23;4.23;;;;;;;2.20;81.54;97890.85;2196622;80;21399;-81
2022/01/06 08:46:53;;;;;;;8.17;5.30;;;;;;;2.27;81.79;97889.33;2209585;80;21423;-81
2022/01/06 08:49:53;;;;;;;9.63;5.37;;;;;;;2.33;82.02;97897.23;2210134;80;21055;-80
2022/01/06 08:52:54;;;;;;;4.87;4.40;;;;;;;2.45;82.03;97892.84;2170369;80;21403;-80
2022/01/06 08:55:54;;;;;;;11.67;4.80;;;;;;;2.54;82.29;97900.41;2196628;80;21348;-80
2022/01/06 08:58:55;;;;;;;12.37;5.40;;;;;;;2.52;82.31;97912.80;2191185;80;20995;-80
2022/01/06 09:01:55;;;;;;;10.43;5.00;;;;;;;2.45;82.09;97910.46;2205333;80;20972;-81
2022/01/06 09:04:56;;;;;;;11.40;5.40;;;;;;;2.54;82.34;97902.12;2203748;80;21024;-80
2022/01/06 09:07:57;;;;;;;6.67;4.63;;;;;;;2.67;82.23;97908.10;2191481;80;21443;-80
2022/01/06 09:10:58;;;;;;;12.33;4.83;;;;;;;2.65;82.06;97903.32;2170997;80;21011;-79
2022/01/06 09:13:58;;;;;;;6.07;4.30;;;;;;;2.67;82.29;97912.38;2196035;80;21035;-79
2022/01/06 09:16:59;;;;;;;6.50;3.83;;;;;;;2.72;81.72;97903.08;2179141;80;20995;-81
2022/01/06 09:19:59;;;;;;;7.83;4.80;;;;;;;2.75;82.18;97910.47;2173634;80;21063;-81
2022/01/06 09:23:00;;;;;;;9.10;5.30;;;;;;;2.71;82.07;97915.50;2199574;80;21366;-81
2022/01/06 09:26:01;;;;;;;535.33;350.80;;;;;;;2.66;82.37;97914.50;2209617;80;21088;-82
2022/01/06 09:29:01;;;;;;;39.53;23.30;;;;;;;3.79;95.07;97907.98;2192215;80;20961;-82
2022/01/06 09:32:02;;;;;;;12.87;6.53;;;;;;;4.97;79.05;97906.20;2187832;80;21032;-83
2022/01/06 09:35:02;;;;;;;10.63;7.33;;;;;;;4.14;77.52;97926.45;2210332;81;20972;-81
2022/01/06 09:38:03;;;;;;;12.73;9.10;;;;;;;3.37;79.02;97937.04;2209990;80;20941;-82
2022/01/06 09:41:05;;;;;;;17.23;10.60;;;;;;;2.94;80.43;97944.48;2184547;80;21015;-82
2022/01/06 09:44:05;;;;;;;21.47;11.37;;;;;;;2.61;81.41;97954.72;2166328;80;21023;-81
2022/01/06 09:47:06;;;;;;;12.03;7.57;;;;;;;2.42;81.57;97963.17;2178524;80;20968;-80
2022/01/06 09:50:06;;;;;;;8.43;4.60;;;;;;;2.35;81.34;97972.83;2177228;80;21031;-82
2022/01/06 09:53:07;;;;;;;8.00;4.87;;;;;;;2.35;80.08;97970.26;2196858;80;20959;-82
2022/01/06 09:56:07;;;;;;;9.83;5.40;;;;;;;2.35;80.14;97976.70;2176371;80;21012;-81
2022/01/06 09:59:08;;;;;;;25.73;16.37;;;;;;;2.33;80.34;97983.50;2184940;80;21008;-82
2022/01/06 10:02:14;;;;;;;9.30;6.20;;;;;;;2.33;84.94;97993.80;2187130;80;21019;-81
2022/01/06 10:05:11;;;;;;;10.47;6.60;;;;;;;2.50;79.37;97997.77;2194934;80;20988;-80
2022/01/06 10:08:12;;;;;;;13.07;7.17;;;;;;;2.25;79.45;97988.84;2183779;80;21119;-82
2022/01/06 10:11:13;;;;;;;12.27;7.10;;;;;;;2.11;80.04;98004.27;2171755;80;21024;-82
2022/01/06 10:14:19;;;;;;;25.77;14.60;;;;;;;2.03;80.28;98012.16;2165723;80;21047;-82
2022/01/06 10:17:15;;;;;;;154.27;91.63;;;;;;;2.08;82.96;98011.89;2190782;80;21028;-82
2022/01/06 10:20:16;;;;;;;39.87;22.73;;;;;;;2.68;83.54;98014.63;2188073;80;21495;-82
2022/01/06 10:23:16;;;;;;;11.33;5.67;;;;;;;3.39;77.94;98015.76;2183765;80;21414;-82
2022/01/06 10:26:17;;;;;;;5.80;3.77;;;;;;;2.87;76.59;98015.61;2195296;80;20978;-81
2022/01/06 10:29:17;;;;;;;10.03;4.77;;;;;;;2.45;77.93;98021.22;2191523;80;20995;-82
2022/01/06 10:32:18;;;;;;;9.00;4.40;;;;;;;2.17;77.44;98039.22;2196323;80;20984;-81
2022/01/06 10:35:20;;;;;;;10.03;4.23;;;;;;;2.13;78.83;98025.38;2171105;80;21027;-81
2022/01/06 10:38:23;;;;;;;8.08;3.92;;;;;;;2.10;77.80;98026.98;2142164;82;21142;-82
2022/01/06 10:41:24;;;;;;;10.07;4.30;;;;;;;2.08;78.53;98029.92;2097939;83;21004;-82
2022/01/06 10:44:25;;;;;;;7.37;4.20;;;;;;;2.07;78.59;98037.18;2211439;80;21085;-82
2022/01/06 10:47:25;;;;;;;7.00;4.03;;;;;;;2.03;78.41;98035.33;2196993;80;21000;-82
2022/01/06 10:50:26;;;;;;;6.80;4.37;;;;;;;2.07;78.49;98038.05;2192005;80;22052;-82
2022/01/06 10:53:26;;;;;;;14.47;6.57;;;;;;;2.09;78.22;98037.69;2208837;80;21004;-82
2022/01/06 10:56:28;;;;;;;18.83;7.43;;;;;;;1.99;77.54;98040.80;2201171;80;20976;-81
2022/01/06 10:59:29;;;;;;;14.20;5.87;;;;;;;1.96;78.31;98043.27;2186509;80;21063;-82
2022/01/06 11:02:29;;;;;;;9.33;5.20;;;;;;;1.91;78.06;98048.27;2166467;80;21099;-80
2022/01/06 11:05:30;;;;;;;7.53;4.70;;;;;;;1.77;77.71;98051.20;2178412;80;20952;-81
2022/01/06 11:08:30;;;;;;;13.47;7.33;;;;;;;1.69;77.92;98058.63;2189214;80;20996;-80
2022/01/06 11:11:44;;;;;;;8.70;6.07;;;;;;;1.78;79.09;98063.25;2210381;80;20989;-81
2022/01/06 11:14:33;;;;;;;10.47;6.00;;;;;;;1.81;78.12;98068.50;2130385;82;21053;-80
2022/01/06 11:17:34;;;;;;;8.83;5.10;;;;;;;1.77;77.86;98073.95;2106270;83;21356;-80
2022/01/06 11:20:34;;;;;;;8.27;4.40;;;;;;;1.77;77.97;98066.23;2186454;80;21024;-80
2022/01/06 11:23:35;;;;;;;6.30;4.50;;;;;;;1.85;77.98;98071.64;2179795;80;21000;-80
2022/01/06 11:26:35;;;;;;;6.67;4.47;;;;;;;1.79;77.81;98076.17;2175136;80;20976;-80
2022/01/06 11:29:36;;;;;;;8.93;5.07;;;;;;;1.76;77.90;98086.77;2167843;80;21411;-80
2022/01/06 11:35:39;;;;;;;97.07;59.00;;;;;;;1.67;77.44;98096.70;2150568;80;20979;-80
2022/01/06 11:38:39;;;;;;;11.23;5.53;;;;;;;2.08;83.07;98094.28;2170091;80;21000;-79
2022/01/06 11:41:40;;;;;;;6.73;4.30;;;;;;;2.88;75.65;98090.83;2202680;80;20981;-79
2022/01/06 11:44:41;;;;;;;5.97;3.97;;;;;;;2.38;74.25;98109.84;2189635;80;20995;-79
2022/01/06 11:47:41;;;;;;;7.40;3.60;;;;;;;1.98;75.04;98102.52;2184929;80;21051;-80
2022/01/06 11:50:42;;;;;;;6.67;3.90;;;;;;;1.69;75.87;98121.67;2172814;80;21301;-80
2022/01/06 11:53:42;;;;;;;8.87;3.90;;;;;;;1.51;76.68;98113.31;2167322;80;21013;-80
2022/01/06 11:56:43;;;;;;;5.87;3.90;;;;;;;1.40;77.70;98121.05;2177865;80;20949;-80
2022/01/06 11:59:44;;;;;;;7.40;4.73;;;;;;;1.31;78.78;98128.43;2195465;80;21008;-79
2022/01/06 12:02:45;;;;;;;6.27;4.23;;;;;;;1.21;79.63;98134.52;2197324;80;21084;-80
2022/01/06 12:05:48;;;;;;;8.03;4.63;;;;;;;1.08;80.13;98131.44;2184992;80;20947;-80
2022/01/06 12:08:48;;;;;;;8.13;6.23;;;;;;;1.05;80.46;98128.34;2139679;82;21060;-81
2022/01/06 12:11:49;;;;;;;7.00;5.37;;;;;;;1.01;80.80;98139.33;2111895;84;21024;-81
2022/01/06 12:14:49;;;;;;;5.70;3.80;;;;;;;0.93;81.53;98141.61;2156805;82;20988;-82
2022/01/06 12:17:52;;;;;;;5.70;4.13;;;;;;;0.63;84.38;98154.11;2209968;80;20972;-82
2022/01/06 12:20:52;;;;;;;6.33;3.90;;;;;;;0.32;85.11;98161.41;2189535;80;21043;-83
2022/01/06 12:23:52;;;;;;;6.23;3.87;;;;;;;-0.04;86.42;98174.44;2181861;80;21404;-82
2022/01/06 12:26:54;;;;;;;9.93;4.50;;;;;;;-0.25;87.57;98188.91;2206186;80;20987;-83
2022/01/06 12:29:54;;;;;;;7.07;5.17;;;;;;;-0.35;86.20;98182.91;2210687;80;21044;-83
2022/01/06 12:32:55;;;;;;;6.90;5.47;;;;;;;-0.41;84.87;98187.77;2171378;80;20964;-83
2022/01/06 12:35:56;;;;;;;91.30;54.87;;;;;;;-0.45;83.85;98191.01;2211248;81;21095;-82
2022/01/06 12:38:56;;;;;;;10.80;5.70;;;;;;;0.79;91.25;98195.81;2184775;80;21002;-83
2022/01/06 12:41:58;;;;;;;7.13;4.67;;;;;;;1.15;80.40;98194.70;2186466;80;20957;-81
2022/01/06 12:44:59;;;;;;;8.27;4.70;;;;;;;0.55;77.97;98202.14;2176514;80;21067;-82
2022/01/06 12:47:59;;;;;;;10.40;5.17;;;;;;;0.26;79.90;98204.80;2182620;80;20988;-83
2022/01/06 12:51:00;;;;;;;9.53;5.63;;;;;;;0.13;80.58;98225.63;2194593;80;21047;-82
2022/01/06 12:54:00;;;;;;;13.60;9.13;;;;;;;0.00;80.13;98222.94;2193553;80;21059;-82
2022/01/06 12:57:02;;;;;;;6.60;3.83;;;;;;;-0.06;79.11;98236.75;2206259;80;21007;-81
2022/01/06 13:00:02;;;;;;;13.67;6.20;;;;;;;-0.17;76.60;98252.08;2187307;80;21063;-82
2022/01/06 13:03:05;;;;;;;8.33;5.00;;;;;;;-0.23;76.93;98245.41;2205086;80;21031;-81
2022/01/06 13:06:05;;;;;;;7.87;4.30;;;;;;;-0.26;76.94;98261.53;2192933;80;21015;-81
2022/01/06 13:09:06;;;;;;;9.77;4.50;;;;;;;-0.28;77.16;98280.23;2201528;80;21440;-80
2022/01/06 13:12:06;;;;;;;7.37;3.87;;;;;;;-0.35;75.50;98285.08;2167085;80;21774;-79
2022/01/06 13:15:07;;;;;;;8.00;3.90;;;;;;;-0.48;73.59;98286.61;2172303;80;21404;-80
2022/01/06 13:18:07;;;;;;;5.00;3.60;;;;;;;-0.58;73.16;98306.22;2166129;80;21043;-79
2022/01/06 13:21:08;;;;;;;7.07;3.47;;;;;;;-0.65;73.06;98303.78;2203080;81;21063;-79
2022/01/06 13:24:08;;;;;;;7.33;4.13;;;;;;;-0.71;70.26;98324.00;2178581;80;21761;-80
2022/01/06 13:27:09;;;;;;;9.10;4.73;;;;;;;-0.76;71.81;98326.75;2176480;80;21004;-79
2022/01/06 13:30:09;;;;;;;7.43;3.97;;;;;;;-0.79;72.54;98325.32;2181968;80;21034;-80
2022/01/06 13:33:10;;;;;;;6.20;3.37;;;;;;;-0.78;72.28;98333.48;2183548;80;20988;-81
2022/01/06 13:36:10;;;;;;;7.30;3.23;;;;;;;-0.78;71.03;98334.77;2176724;80;20991;-81
2022/01/06 13:39:11;;;;;;;5.63;3.27;;;;;;;-0.77;69.08;98335.64;2185059;80;21055;-80
2022/01/06 13:42:11;;;;;;;6.03;3.30;;;;;;;-0.77;68.57;98348.45;2209118;80;20964;-80
2022/01/06 13:45:30;;;;;;;9.23;4.33;;;;;;;-0.71;67.75;98341.06;2186403;80;21460;-81
2022/01/06 13:51:35;;;;;;;8.93;4.80;;;;;;;-0.57;68.71;98355.81;2178792;81;21004;-81
2022/01/06 13:54:38;;;;;;;11.13;5.53;;;;;;;-0.55;69.20;98361.89;2205035;80;20995;-80
2022/01/06 13:57:38;;;;;;;22.07;6.97;;;;;;;-0.55;70.06;98366.61;2146650;82;21080;-81
2022/01/06 14:00:38;;;;;;;16.83;7.10;;;;;;;-0.58;69.54;98375.84;2111926;84;21522;-80
2022/01/06 14:03:39;;;;;;;17.33;6.70;;;;;;;-0.63;69.09;98385.00;2187246;80;20996;-79
2022/01/06 14:06:39;;;;;;;14.97;6.80;;;;;;;-0.67;68.99;98389.09;2209730;80;21016;-80
2022/01/06 14:09:40;;;;;;;18.63;7.37;;;;;;;-0.74;69.07;98402.02;2190755;80;20975;-79
2022/01/06 14:12:41;;;;;;;14.70;7.60;;;;;;;-0.80;69.33;98406.84;2193438;80;20992;-79
2022/01/06 14:15:43;;;;;;;8.10;4.83;;;;;;;-0.83;69.69;98432.33;2173675;80;21022;-79
2022/01/06 14:18:45;;;;;;;14.93;6.10;;;;;;;-0.84;69.27;98429.69;2144566;82;21072;-79
2022/01/06 14:21:45;;;;;;;12.80;6.17;;;;;;;-0.85;70.62;98424.96;2198991;81;20996;-79
2022/01/06 14:24:46;;;;;;;13.77;5.80;;;;;;;-0.95;73.36;98435.52;2190102;81;21375;-80